createdAt,value
2023-02-01T00:00:53.492Z,11.77
2023-02-01T00:03:20.500Z,12.02
2023-02-01T00:05:59.716Z,12.55
2023-02-01T00:08:27.477Z,12.48
2023-02-01T00:11:10.939Z,12.52
2023-02-01T00:13:39.895Z,12.13
2023-02-01T00:16:17.560Z,13.18
2023-02-01T00:18:45.783Z,12.55
2023-02-01T00:21:14.185Z,13.48
2023-02-01T00:23:41.758Z,12.77
2023-02-01T00:26:15.135Z,12.73
2023-02-01T00:28:42.601Z,13.15
2023-02-01T00:31:09.586Z,11.80
2023-02-01T00:33:36.605Z,12.13
2023-02-01T00:36:08.492Z,13.25
2023-02-01T00:38:38.446Z,12.80
2023-02-01T00:41:13.437Z,11.82
2023-02-01T00:43:40.875Z,11.77
2023-02-01T00:46:08.260Z,13.20
2023-02-01T00:48:35.752Z,13.10
2023-02-01T00:51:04.876Z,13.00
2023-02-01T00:53:32.270Z,11.90
2023-02-01T00:55:59.709Z,11.98
2023-02-01T00:58:27.748Z,12.23
2023-02-01T01:01:14.869Z,12.82
2023-02-01T01:03:44.727Z,11.65
2023-02-01T01:06:14.222Z,11.55
2023-02-01T01:08:42.102Z,11.75
2023-02-01T01:11:16.015Z,10.90
2023-02-01T01:13:43.778Z,12.70
2023-02-01T01:16:12.080Z,11.50
2023-02-01T01:18:40.807Z,11.60
2023-02-01T01:21:08.948Z,11.35
2023-02-01T01:23:37.348Z,11.38
2023-02-01T01:26:18.790Z,12.00
2023-02-01T01:28:46.677Z,11.73
2023-02-01T01:31:16.107Z,11.30
2023-02-01T01:33:44.989Z,11.50
2023-02-01T01:36:13.328Z,11.35
2023-02-01T01:38:41.713Z,12.10
2023-02-01T01:41:12.985Z,10.95
2023-02-01T01:43:57.539Z,11.27
2023-02-01T01:46:32.429Z,11.10
2023-02-01T01:49:08.320Z,11.02
2023-02-01T01:51:40.372Z,11.40
2023-02-01T01:54:18.396Z,12.32
2023-02-01T01:56:50.166Z,11.55
2023-02-01T01:59:17.812Z,12.13
2023-02-01T02:01:45.310Z,11.88
2023-02-01T02:04:12.535Z,12.55
2023-02-01T02:07:03.322Z,12.18
2023-02-01T02:09:33.628Z,13.30
2023-02-01T02:12:00.631Z,12.73
2023-02-01T02:14:31.146Z,13.45
2023-02-01T02:17:16.830Z,14.50
2023-02-01T02:20:10.767Z,14.27
2023-02-01T02:23:13.179Z,15.57
2023-02-01T02:26:21.204Z,16.17
2023-02-01T02:28:51.868Z,17.27
2023-02-01T02:31:36.110Z,16.83
2023-02-01T02:34:40.036Z,17.40
2023-02-01T02:37:19.374Z,16.63
2023-02-01T02:39:58.486Z,17.23
2023-02-01T02:42:58.188Z,17.08
2023-02-01T02:46:02.032Z,17.05
2023-02-01T02:48:55.454Z,16.48
2023-02-01T02:51:48.051Z,16.63
2023-02-01T02:54:39.025Z,17.00
2023-02-01T02:57:37.724Z,16.40
2023-02-01T03:00:28.234Z,16.42
2023-02-01T03:03:14.297Z,16.50
2023-02-01T03:05:45.741Z,14.65
2023-02-01T03:08:26.673Z,16.55
2023-02-01T03:11:16.533Z,15.52
2023-02-01T03:13:56.198Z,15.48
2023-02-01T03:16:33.117Z,14.07
2023-02-01T03:19:13.239Z,15.02
2023-02-01T03:21:51.309Z,15.75
2023-02-01T03:24:21.806Z,14.35
2023-02-01T03:27:01.720Z,13.75
2023-02-01T03:29:38.456Z,13.50
2023-02-01T03:32:06.224Z,13.48
2023-02-01T03:34:33.774Z,12.43
2023-02-01T03:37:06.002Z,12.23
2023-02-01T03:39:43.567Z,13.15
2023-02-01T03:42:27.014Z,12.82
2023-02-01T03:45:11.348Z,13.75
2023-02-01T03:47:46.445Z,12.93
2023-02-01T03:50:17.821Z,11.73
2023-02-01T03:53:08.971Z,13.30
2023-02-01T03:55:37.682Z,12.18
2023-02-01T03:58:19.519Z,12.80
2023-02-01T04:00:58.337Z,12.65
2023-02-01T04:03:26.646Z,11.98
2023-02-01T04:05:54.751Z,11.98
2023-02-01T04:08:25.790Z,11.75
2023-02-01T04:10:52.772Z,12.70
2023-02-01T04:13:19.737Z,12.70
2023-02-01T04:15:50.872Z,12.20
2023-02-01T04:18:17.973Z,11.07
2023-02-01T04:20:45.479Z,12.75
2023-02-01T04:23:12.511Z,11.00
2023-02-01T04:25:39.505Z,12.55
2023-02-01T04:28:07.988Z,12.57
2023-02-01T04:30:35.582Z,12.02
2023-02-01T04:33:04.761Z,12.55
2023-02-01T04:35:31.709Z,12.80
2023-02-01T04:37:58.993Z,11.40
2023-02-01T04:40:26.102Z,12.23
2023-02-01T04:42:53.053Z,12.75
2023-02-01T04:45:20.065Z,13.65
2023-02-01T04:47:47.090Z,12.90
2023-02-01T04:50:14.116Z,12.82
2023-02-01T04:52:41.687Z,12.60
2023-02-01T04:55:09.114Z,12.52
2023-02-01T04:57:36.023Z,13.23
2023-02-01T05:00:03.777Z,12.05
2023-02-01T05:02:30.727Z,12.38
2023-02-01T05:04:57.716Z,11.07
2023-02-01T05:07:24.931Z,10.93
2023-02-01T05:09:52.226Z,11.30
2023-02-01T05:12:37.651Z,12.65
2023-02-01T05:15:05.272Z,12.20
2023-02-01T05:17:32.197Z,12.95
2023-02-01T05:19:59.115Z,11.48
2023-02-01T05:22:26.088Z,12.68
2023-02-01T05:24:53.027Z,12.43
2023-02-01T05:27:19.928Z,12.55
2023-02-01T05:29:46.841Z,12.75
2023-02-01T05:32:22.080Z,12.55
2023-02-01T05:34:50.280Z,13.23
2023-02-01T05:37:17.266Z,13.25
2023-02-01T05:39:44.197Z,13.15
2023-02-01T05:42:11.182Z,13.18
2023-02-01T05:44:38.224Z,13.02
2023-02-01T05:47:05.516Z,12.57
2023-02-01T05:49:32.418Z,14.20
2023-02-01T05:52:00.483Z,12.02
2023-02-01T05:54:28.074Z,13.95
2023-02-01T05:56:55.065Z,14.25
2023-02-01T05:59:22.084Z,13.05
2023-02-01T06:01:49.192Z,12.45
2023-02-01T06:04:16.155Z,14.32
2023-02-01T06:06:43.126Z,12.80
2023-02-01T06:09:11.590Z,12.90
2023-02-01T06:11:38.606Z,14.23
2023-02-01T06:14:05.666Z,13.85
2023-02-01T06:16:32.808Z,13.30
2023-02-01T06:18:59.894Z,13.90
2023-02-01T06:21:26.921Z,14.85
2023-02-01T06:23:55.127Z,13.55
2023-02-01T06:26:22.690Z,12.88
2023-02-01T06:28:50.413Z,13.70
2023-02-01T06:31:17.369Z,13.82
2023-02-01T06:33:44.563Z,14.50
2023-02-01T06:36:17.049Z,14.07
2023-02-01T06:38:44.023Z,14.10
2023-02-01T06:41:12.148Z,14.35
2023-02-01T06:43:39.575Z,13.52
2023-02-01T06:46:09.474Z,12.38
2023-02-01T06:48:36.621Z,11.65
2023-02-01T06:51:04.000Z,11.00
2023-02-01T06:57:01.749Z,10.30
2023-02-01T06:59:28.928Z,10.10
2023-02-01T07:01:55.983Z,10.50
2023-02-01T07:04:23.236Z,10.50
2023-02-01T07:06:50.192Z,10.35
2023-02-01T07:09:17.244Z,10.48
2023-02-01T07:11:45.176Z,11.63
2023-02-01T07:14:12.481Z,11.05
2023-02-01T07:16:39.537Z,10.77
2023-02-01T07:19:06.487Z,12.73
2023-02-01T07:21:33.422Z,10.70
2023-02-01T07:24:00.974Z,9.68
2023-02-01T07:26:27.979Z,9.98
2023-02-01T07:28:57.333Z,10.35
2023-02-01T07:31:26.430Z,11.25
2023-02-01T07:33:53.384Z,10.35
2023-02-01T07:36:20.444Z,10.63
2023-02-01T07:38:48.803Z,11.52
2023-02-01T07:41:16.689Z,12.90
2023-02-01T07:43:43.678Z,10.77
2023-02-01T07:46:11.491Z,10.10
2023-02-01T07:48:38.830Z,11.07
2023-02-01T07:51:09.579Z,10.63
2023-02-01T07:53:37.552Z,10.48
2023-02-01T07:56:05.426Z,10.50
2023-02-01T07:58:32.427Z,10.20
2023-02-01T08:01:17.773Z,9.65
2023-02-01T08:03:44.776Z,10.45
2023-02-01T08:06:11.738Z,9.80
2023-02-01T08:08:39.099Z,10.77
2023-02-01T08:11:08.025Z,10.63
2023-02-01T08:13:36.417Z,9.23
2023-02-01T08:16:06.363Z,9.77
2023-02-01T08:18:34.360Z,9.50
2023-02-01T08:21:05.530Z,9.13
2023-02-01T08:23:32.480Z,9.15
2023-02-01T08:26:14.596Z,10.63
2023-02-01T08:28:44.749Z,11.38
2023-02-01T08:31:15.964Z,10.35
2023-02-01T08:33:44.360Z,10.63
2023-02-01T08:36:12.541Z,9.88
2023-02-01T08:38:40.909Z,10.18
2023-02-01T08:41:13.502Z,11.90
2023-02-01T08:43:42.169Z,10.65
2023-02-01T08:46:10.626Z,10.10
2023-02-01T08:48:38.353Z,10.77
2023-02-01T08:51:07.445Z,11.48
2023-02-01T08:53:34.366Z,10.05
2023-02-01T08:56:01.931Z,10.48
2023-02-01T08:58:29.029Z,11.07
2023-02-01T09:00:56.578Z,10.13
2023-02-01T09:03:23.661Z,9.95
2023-02-01T09:05:51.416Z,9.68
2023-02-01T09:08:21.241Z,10.20
2023-02-01T09:10:48.266Z,9.32
2023-02-01T09:13:15.283Z,10.70
2023-02-01T09:15:42.124Z,9.43
2023-02-01T09:18:09.087Z,10.18
2023-02-01T09:20:37.848Z,12.05
2023-02-01T09:23:04.792Z,11.13
2023-02-01T09:25:31.672Z,10.18
2023-02-01T09:27:58.609Z,11.75
2023-02-01T09:30:25.908Z,11.35
2023-02-01T09:32:53.023Z,10.77
2023-02-01T09:35:19.922Z,10.70
2023-02-01T09:37:46.811Z,10.15
2023-02-01T09:40:18.199Z,10.23
2023-02-01T09:43:18.199Z,10.25
2023-02-01T09:45:54.264Z,10.10
2023-02-01T09:48:26.402Z,8.88
2023-02-01T09:50:59.008Z,9.10
2023-02-01T09:53:29.305Z,9.05
2023-02-01T09:56:04.133Z,9.60
2023-02-01T09:58:42.315Z,9.00
2023-02-01T10:01:35.880Z,9.63
2023-02-01T10:04:15.282Z,8.88
2023-02-01T10:06:49.125Z,9.27
2023-02-01T10:09:25.060Z,10.40
2023-02-01T10:11:58.016Z,9.98
2023-02-01T10:14:24.894Z,9.57
2023-02-01T10:17:33.160Z,9.85
2023-02-01T10:20:08.643Z,9.65
2023-02-01T10:23:23.055Z,9.63
2023-02-01T10:25:55.142Z,9.18
2023-02-01T10:28:24.206Z,8.98
2023-02-01T10:30:56.119Z,9.85
2023-02-01T10:33:33.524Z,8.35
2023-02-01T10:36:12.051Z,8.23
2023-02-01T10:38:39.043Z,7.30
2023-02-01T10:41:15.459Z,7.18
2023-02-01T10:43:43.790Z,6.03
2023-02-01T10:46:11.563Z,7.03
2023-02-01T10:48:39.673Z,7.05
2023-02-01T10:51:24.282Z,6.75
2023-02-01T10:54:03.039Z,7.22
2023-02-01T10:56:31.020Z,6.13
2023-02-01T10:59:07.509Z,6.20
2023-02-01T11:01:48.853Z,6.30
2023-02-01T11:04:21.473Z,6.80
2023-02-01T11:06:55.972Z,6.68
2023-02-01T11:09:25.692Z,5.97
2023-02-01T11:11:52.545Z,5.80
2023-02-01T11:14:21.792Z,5.97
2023-02-01T11:16:56.255Z,5.82
2023-02-01T11:19:23.112Z,6.35
2023-02-01T11:21:54.752Z,5.97
2023-02-01T11:24:32.792Z,6.72
2023-02-01T11:27:05.772Z,6.55
2023-02-01T11:29:39.308Z,6.43
2023-02-01T11:32:06.686Z,6.93
2023-02-01T11:34:45.223Z,6.65
2023-02-01T11:37:23.026Z,6.05
2023-02-01T11:39:59.671Z,6.78
2023-02-01T11:42:28.611Z,6.40
2023-02-01T11:45:22.108Z,7.32
2023-02-01T11:47:53.939Z,6.03
2023-02-01T11:50:35.937Z,5.63
2023-02-01T11:53:27.667Z,6.22
2023-02-01T11:56:13.120Z,6.10
2023-02-01T11:59:07.464Z,6.70
2023-02-01T12:01:43.822Z,6.35
2023-02-01T12:04:55.116Z,5.78
2023-02-01T12:07:57.527Z,7.18
2023-02-01T12:11:00.710Z,5.75
2023-02-01T12:13:39.626Z,6.57
2023-02-01T12:16:36.464Z,6.38
2023-02-01T12:19:12.321Z,6.80
2023-02-01T12:22:14.660Z,6.30
2023-02-01T12:24:56.064Z,5.45
2023-02-01T12:27:42.523Z,5.40
2023-02-01T12:30:51.980Z,4.97
2023-02-01T12:33:38.773Z,4.80
2023-02-01T12:36:22.901Z,5.47
2023-02-01T12:38:56.965Z,4.72
2023-02-01T12:41:51.599Z,4.80
2023-02-01T12:44:34.084Z,4.57
2023-02-01T12:47:13.884Z,4.18
2023-02-01T12:50:02.485Z,3.47
2023-02-01T12:52:38.873Z,3.60
2023-02-01T12:55:21.716Z,3.92
2023-02-01T12:57:56.859Z,3.90
2023-02-01T13:00:37.494Z,3.90
2023-02-01T13:03:29.451Z,3.97
2023-02-01T13:06:10.206Z,3.70
2023-02-01T13:08:49.228Z,3.15
2023-02-01T13:11:26.208Z,3.30
2023-02-01T13:13:56.175Z,2.75
2023-02-01T13:16:54.538Z,2.97
2023-02-01T13:19:51.736Z,2.33
2023-02-01T13:22:31.905Z,2.72
2023-02-01T13:25:03.409Z,3.70
2023-02-01T13:27:32.302Z,2.88
2023-02-01T13:30:06.698Z,3.03
2023-02-01T13:33:53.813Z,2.65
2023-02-01T13:36:40.678Z,3.05
2023-02-01T13:39:20.941Z,2.72
2023-02-01T13:41:56.078Z,3.13
2023-02-01T13:44:33.256Z,2.50
2023-02-01T13:47:04.066Z,2.85
2023-02-01T13:49:38.417Z,3.45
2023-02-01T13:52:06.465Z,3.75
2023-02-01T13:54:38.682Z,3.40
2023-02-01T13:57:28.462Z,3.33
2023-02-01T14:00:08.351Z,3.05
2023-02-01T14:02:41.500Z,3.10
2023-02-01T14:05:13.961Z,2.95
2023-02-01T14:08:08.877Z,3.30
2023-02-01T14:10:59.393Z,3.53
2023-02-01T14:13:38.484Z,3.78
2023-02-01T14:16:05.632Z,3.72
2023-02-01T14:18:38.966Z,3.65
2023-02-01T14:21:22.250Z,4.03
2023-02-01T14:24:04.143Z,3.83
2023-02-01T14:26:49.227Z,3.83
2023-02-01T14:29:23.567Z,4.45
2023-02-01T14:32:19.247Z,4.80
2023-02-01T14:35:00.517Z,7.38
2023-02-01T14:37:33.812Z,7.88
2023-02-01T14:40:24.011Z,7.72
2023-02-01T14:42:54.980Z,8.05
2023-02-01T14:45:23.535Z,8.20
2023-02-01T14:48:14.175Z,8.02
2023-02-01T14:50:47.395Z,8.18
2023-02-01T14:53:14.321Z,7.60
2023-02-01T14:55:47.890Z,7.70
2023-02-01T14:58:47.361Z,7.60
2023-02-01T15:01:32.064Z,7.80
2023-02-01T15:04:04.961Z,8.30
2023-02-01T15:06:52.569Z,7.25
2023-02-01T15:09:31.628Z,6.97
2023-02-01T15:12:13.711Z,7.65
2023-02-01T15:14:52.555Z,7.30
2023-02-01T15:17:27.995Z,7.15
2023-02-01T15:20:04.856Z,7.55
2023-02-01T15:22:35.956Z,6.90
2023-02-01T15:25:04.281Z,7.18
2023-02-01T15:27:33.257Z,7.13
2023-02-01T15:30:08.794Z,6.68
2023-02-01T15:32:41.552Z,7.03
2023-02-01T15:35:37.366Z,7.03
2023-02-01T15:38:25.739Z,7.05
2023-02-01T15:41:22.113Z,6.10
2023-02-01T15:43:54.971Z,6.07
2023-02-01T15:46:39.416Z,6.72
2023-02-01T15:49:21.938Z,6.53
2023-02-01T15:51:49.949Z,6.15
2023-02-01T15:54:21.275Z,6.90
2023-02-01T15:56:54.353Z,6.63
2023-02-01T15:59:25.884Z,5.68
2023-02-01T16:01:52.837Z,6.82
2023-02-01T16:04:22.022Z,6.53
2023-02-01T16:06:52.184Z,6.47
2023-02-01T16:09:22.592Z,6.53
2023-02-01T16:11:57.507Z,7.28
2023-02-01T16:14:25.722Z,6.28
2023-02-01T16:16:55.266Z,5.60
2023-02-01T16:19:24.418Z,6.25
2023-02-01T16:21:51.405Z,6.63
2023-02-01T16:24:18.283Z,6.78
2023-02-01T16:26:45.261Z,5.75
2023-02-01T16:29:12.368Z,5.72
2023-02-01T16:31:40.797Z,6.80
2023-02-01T16:34:12.005Z,6.57
2023-02-01T16:36:39.986Z,5.93
2023-02-01T16:39:12.182Z,7.30
2023-02-01T16:41:40.453Z,6.15
2023-02-01T16:44:08.033Z,6.95
2023-02-01T16:46:40.463Z,5.65
2023-02-01T16:49:16.326Z,6.15
2023-02-01T16:51:43.582Z,6.50
2023-02-01T16:54:11.572Z,6.00
2023-02-01T16:56:42.482Z,6.35
2023-02-01T16:59:09.801Z,6.00
2023-02-01T17:01:38.674Z,6.18
2023-02-01T17:04:05.743Z,5.93
2023-02-01T17:06:34.268Z,5.90
2023-02-01T17:09:03.331Z,6.03
2023-02-01T17:11:33.446Z,5.63
2023-02-01T17:14:20.842Z,5.82
2023-02-01T17:16:50.289Z,5.50
2023-02-01T17:19:24.660Z,5.15
2023-02-01T17:21:56.841Z,5.82
2023-02-01T17:24:35.767Z,6.10
2023-02-01T17:27:06.333Z,5.90
2023-02-01T17:29:33.916Z,5.45
2023-02-01T17:32:01.461Z,6.20
2023-02-01T17:34:28.855Z,6.03
2023-02-01T17:36:56.358Z,5.72
2023-02-01T17:39:41.922Z,5.65
2023-02-01T17:42:12.601Z,5.45
2023-02-01T17:44:39.605Z,6.50
2023-02-01T17:47:06.613Z,5.43
2023-02-01T17:49:35.992Z,5.78
2023-02-01T17:52:03.070Z,5.93
2023-02-01T17:54:30.212Z,6.28
2023-02-01T17:57:00.469Z,6.35
2023-02-01T17:59:27.893Z,6.57
2023-02-01T18:02:00.809Z,6.80
2023-02-01T18:04:28.431Z,6.50
2023-02-01T18:06:55.607Z,5.72
2023-02-01T18:09:23.086Z,6.65
2023-02-01T18:11:50.946Z,7.18
2023-02-01T18:14:18.230Z,6.82
2023-02-01T18:16:45.284Z,6.78
2023-02-01T18:19:12.387Z,7.13
2023-02-01T18:21:42.682Z,6.97
2023-02-01T18:24:13.455Z,7.10
2023-02-01T18:26:41.013Z,8.00
2023-02-01T18:29:08.095Z,8.98
2023-02-01T18:31:41.182Z,8.43
2023-02-01T18:34:10.734Z,8.13
2023-02-01T18:36:37.602Z,8.02
2023-02-01T18:39:04.698Z,8.25
2023-02-01T18:41:31.704Z,8.85
2023-02-01T18:43:58.608Z,8.07
2023-02-01T18:46:26.413Z,7.10
2023-02-01T18:48:55.279Z,7.55
2023-02-01T18:51:23.633Z,8.48
2023-02-01T18:53:51.774Z,7.90
2023-02-01T18:56:19.125Z,8.43
2023-02-01T18:58:46.593Z,7.68
2023-02-01T19:01:16.480Z,8.88
2023-02-01T19:03:45.791Z,8.50
2023-02-01T19:06:17.015Z,8.45
2023-02-01T19:08:48.112Z,9.90
2023-02-01T19:11:15.455Z,9.95
2023-02-01T19:13:42.747Z,9.45
2023-02-01T19:16:17.829Z,9.82
2023-02-01T19:18:45.204Z,9.38
2023-02-01T19:21:13.991Z,10.88
2023-02-01T19:23:44.248Z,9.70
2023-02-01T19:26:12.941Z,8.75
2023-02-01T19:28:40.474Z,10.32
2023-02-01T19:31:10.573Z,8.15
2023-02-01T19:33:39.686Z,8.90
2023-02-01T19:36:09.524Z,8.27
2023-02-01T19:38:37.227Z,8.18
2023-02-01T19:41:04.310Z,8.93
2023-02-01T19:43:32.749Z,7.70
2023-02-01T19:46:01.171Z,7.63
2023-02-01T19:48:31.151Z,9.38
2023-02-01T19:50:59.367Z,8.90
2023-02-01T19:53:28.036Z,7.82
2023-02-01T19:55:57.867Z,6.90
2023-02-01T19:58:25.900Z,6.65
2023-02-01T20:00:54.334Z,7.57
2023-02-01T20:03:22.248Z,6.90
2023-02-01T20:05:56.798Z,6.93
2023-02-01T20:08:24.436Z,7.03
2023-02-01T20:10:51.672Z,6.47
2023-02-01T20:13:18.909Z,6.75
2023-02-01T20:15:46.173Z,6.53
2023-02-01T20:21:00.652Z,6.13
2023-02-01T20:22:37.562Z,5.93
2023-02-01T20:25:04.912Z,6.32
2023-02-01T20:27:32.720Z,6.15
2023-02-01T20:29:59.649Z,6.20
2023-02-01T20:32:26.877Z,5.35
2023-02-01T20:34:56.174Z,6.93
2023-02-01T20:37:43.645Z,6.47
2023-02-01T20:40:12.114Z,7.43
2023-02-01T20:42:39.177Z,7.32
2023-02-01T20:45:06.615Z,6.93
2023-02-01T20:47:33.736Z,6.53
2023-02-01T20:50:04.248Z,7.68
2023-02-01T20:52:33.610Z,7.15
2023-02-01T20:55:00.729Z,6.90
2023-02-01T20:57:28.080Z,7.03
2023-02-01T20:59:55.051Z,7.15
2023-02-01T21:02:22.240Z,7.32
2023-02-01T21:04:49.225Z,6.57
2023-02-01T21:07:16.146Z,6.63
2023-02-01T21:09:43.471Z,6.88
2023-02-01T21:12:11.132Z,6.47
2023-02-01T21:14:38.242Z,6.57
2023-02-01T21:17:05.437Z,6.72
2023-02-01T21:19:43.531Z,6.93
2023-02-01T21:22:12.273Z,6.35
2023-02-01T21:24:41.225Z,7.18
2023-02-01T21:27:09.658Z,6.72
2023-02-01T21:29:36.576Z,6.78
2023-02-01T21:32:05.025Z,6.65
2023-02-01T21:34:31.929Z,6.95
2023-02-01T21:36:58.864Z,6.95
2023-02-01T21:39:28.682Z,7.05
2023-02-01T21:42:15.027Z,6.55
2023-02-01T21:44:42.552Z,7.18
2023-02-01T21:47:11.085Z,6.55
2023-02-01T21:49:38.609Z,6.97
2023-02-01T21:52:11.851Z,7.53
2023-02-01T21:54:39.467Z,7.15
2023-02-01T21:57:12.100Z,7.32
2023-02-01T21:59:44.104Z,7.15
2023-02-01T22:02:16.320Z,7.57
2023-02-01T22:04:44.395Z,7.28
2023-02-01T22:07:12.042Z,7.05
2023-02-01T22:09:39.216Z,7.10
2023-02-01T22:12:06.309Z,6.85
2023-02-01T22:14:33.592Z,6.80
2023-02-01T22:17:00.841Z,7.03
2023-02-01T22:19:27.909Z,7.65
2023-02-01T22:21:55.513Z,7.45
2023-02-01T22:24:22.787Z,7.43
2023-02-01T22:26:51.265Z,7.07
2023-02-01T22:29:24.133Z,7.75
2023-02-01T22:31:51.206Z,7.55
2023-02-01T22:34:18.542Z,7.60
2023-02-01T22:36:49.127Z,8.25
2023-02-01T22:39:16.290Z,8.27
2023-02-01T22:41:44.946Z,8.02
2023-02-01T22:44:12.105Z,7.85
2023-02-01T22:46:40.217Z,8.40
2023-02-01T22:49:07.233Z,8.63
2023-02-01T22:51:34.219Z,8.38
2023-02-01T22:54:01.634Z,8.05
2023-02-01T22:56:37.640Z,7.90
2023-02-01T22:59:10.817Z,7.18
2023-02-01T23:01:37.935Z,8.88
2023-02-01T23:04:07.023Z,7.28
2023-02-01T23:06:34.877Z,8.23
2023-02-01T23:09:06.299Z,8.07
2023-02-01T23:11:33.233Z,8.55
2023-02-01T23:14:00.171Z,8.48
2023-02-01T23:16:27.123Z,8.40
2023-02-01T23:18:57.724Z,8.13
2023-02-01T23:21:31.068Z,8.73
2023-02-01T23:24:01.257Z,8.07
2023-02-01T23:26:59.428Z,8.20
2023-02-01T23:29:55.602Z,7.97
2023-02-01T23:32:22.588Z,8.30
2023-02-01T23:35:14.956Z,8.35
2023-02-01T23:38:17.613Z,8.82
2023-02-01T23:40:44.565Z,8.98
2023-02-01T23:43:30.239Z,8.88
2023-02-01T23:46:03.359Z,8.27
2023-02-01T23:49:08.155Z,12.55
2023-02-01T23:51:40.990Z,8.95
2023-02-01T23:54:10.165Z,8.27
2023-02-01T23:56:40.372Z,8.05
2023-02-01T23:59:16.011Z,8.75
